Time;durP1;ratioP1;P1;durP2;ratioP2;P2;SDS_P1;SDS_P2;PMS_P1;PMS_P2;Temp;Humidity;BMP_temperature;BMP_pressure;BME280_temperature;BME280_humidity;BME280_pressure;Samples;Min_cycle;Max_cycle;Signal;HPM_P1;HPM_P2
2021/12/05 00:23:47;;;;;;;13.55;2.88;;;;;;;3.98;77.58;99734.88;5050046;28;20098;-61
2021/12/05 00:26:13;;;;;;;;;;;;;;;4.01;77.73;99732.16;5029624;28;20021;-61
2021/12/05 00:31:31;;;;;;;15.45;3.40;;;;;;;3.89;78.78;99732.47;5051807;28;20052;-62
2021/12/05 00:34:12;;;;;;;21.85;3.58;;;;;;;3.93;79.00;99736.72;5046472;28;20647;-61
2021/12/05 00:39:32;;;;;;;10.23;2.92;;;;;;;3.88;79.95;99728.13;5066956;28;20510;-61
2021/12/05 00:42:19;;;;;;;16.63;3.08;;;;;;;3.83;80.34;99725.66;5059866;28;20041;-61
2021/12/05 00:55:25;;;;;;;13.95;2.67;;;;;;;3.72;80.65;99738.94;5049356;28;20041;-63
2021/12/05 01:13:29;;;;;;;15.38;3.33;;;;;;;3.70;81.77;99721.63;5055865;28;20116;-63
2021/12/05 01:15:57;;;;;;;10.50;2.72;;;;;;;3.69;81.94;99717.28;5045919;28;20033;-62
2021/12/05 01:18:23;;;;;;;19.73;4.10;;;;;;;3.69;81.82;99718.16;5044790;28;20051;-62
2021/12/05 01:20:55;;;;;;;14.30;2.65;;;;;;;3.65;82.18;99716.53;5059361;28;20024;-62
2021/12/05 01:23:40;;;;;;;11.35;3.30;;;;;;;3.72;81.63;99715.50;5059921;28;20032;-63
2021/12/05 01:26:09;;;;;;;11.85;3.17;;;;;;;3.72;81.08;99720.69;5065405;28;20050;-62
2021/12/05 01:31:28;;;;;;;16.40;3.00;;;;;;;3.67;81.78;99719.94;5065851;28;20047;-62
2021/12/05 01:57:21;;;;;;;11.88;3.10;;;;;;;3.72;78.80;99710.28;5052668;28;20071;-63
2021/12/05 02:40:19;;;;;;;20.25;3.80;;;;;;;3.61;80.76;99707.06;5022162;28;21513;-59
2021/12/05 02:42:50;;;;;;;18.55;3.35;;;;;;;3.63;80.95;99702.66;5024186;28;20105;-59
2021/12/05 02:45:15;;;;;;;20.67;3.80;;;;;;;3.60;80.76;99701.00;5022477;28;20025;-61
2021/12/05 02:47:48;;;;;;;17.73;3.63;;;;;;;3.62;80.55;99708.78;5005781;28;20025;-59
2021/12/05 02:50:13;;;;;;;19.63;4.20;;;;;;;3.64;80.62;99701.78;5020502;28;20025;-60
2021/12/05 02:52:40;;;;;;;18.60;4.00;;;;;;;3.63;80.62;99700.94;5004861;28;20072;-61
2021/12/05 02:55:11;;;;;;;13.80;3.53;;;;;;;3.63;80.79;99694.84;5004367;28;20068;-60
2021/12/05 03:00:18;;;;;;;21.95;4.60;;;;;;;3.59;80.18;99704.50;5006205;28;20506;-62
2021/12/05 03:02:47;;;;;;;14.52;3.90;;;;;;;3.61;80.02;99704.47;5003560;28;20383;-60
2021/12/05 03:05:18;;;;;;;23.05;5.10;;;;;;;3.53;80.14;99702.88;5014446;28;20045;-60
2021/12/05 03:07:46;;;;;;;17.95;4.38;;;;;;;3.43;80.88;99696.16;5005213;28;20029;-60
2021/12/05 03:10:14;;;;;;;18.92;4.18;;;;;;;3.31;81.55;99701.66;5012941;28;20026;-60
2021/12/05 03:12:39;;;;;;;15.75;3.80;;;;;;;3.24;81.85;99706.13;5022516;28;20407;-60
2021/12/05 03:15:09;;;;;;;17.05;5.30;;;;;;;3.29;81.80;99701.69;5022227;28;20014;-59
2021/12/05 03:17:35;;;;;;;14.60;4.60;;;;;;;3.26;82.09;99704.38;5021154;28;20461;-59
2021/12/05 03:20:00;;;;;;;11.00;4.38;;;;;;;3.28;82.24;99699.97;5021188;28;20124;-59
2021/12/05 03:22:26;;;;;;;16.73;5.05;;;;;;;3.22;82.71;99694.91;5004133;28;20056;-59
2021/12/05 03:24:51;;;;;;;16.73;4.38;;;;;;;3.28;81.99;99699.97;5022392;28;20036;-59
2021/12/05 03:27:17;;;;;;;14.65;3.00;;;;;;;3.33;81.11;99702.47;5018900;28;20028;-61
2021/12/05 03:29:42;;;;;;;9.13;2.95;;;;;;;3.33;81.28;99705.94;5014126;28;20018;-59
2021/12/05 03:32:07;;;;;;;13.18;3.30;;;;;;;3.29;80.95;99705.16;5000690;28;20049;-59
2021/12/05 03:34:33;;;;;;;7.63;2.92;;;;;;;3.24;81.69;99707.00;5038050;28;20044;-59
2021/12/05 03:36:59;;;;;;;12.35;3.38;;;;;;;3.30;81.51;99713.81;5041797;28;20033;-59
2021/12/05 03:39:25;;;;;;;11.93;3.88;;;;;;;3.35;81.41;99713.72;5040745;28;20629;-59
2021/12/05 03:41:53;;;;;;;10.75;3.80;;;;;;;3.31;81.71;99719.91;5041357;28;20025;-59
2021/12/05 03:44:19;;;;;;;8.52;2.95;;;;;;;3.30;80.99;99706.00;5041166;28;20033;-60
2021/12/05 03:46:47;;;;;;;12.93;3.88;;;;;;;3.27;81.15;99721.69;5037419;28;20033;-60
2021/12/05 03:49:13;;;;;;;8.27;3.85;;;;;;;3.28;81.12;99713.84;5004464;28;20500;-60
2021/12/05 03:51:50;;;;;;;11.05;4.55;;;;;;;3.23;81.38;99710.50;5019923;28;20044;-60
2021/12/05 03:54:16;;;;;;;8.07;5.18;;;;;;;3.21;81.66;99714.88;5004908;28;20187;-63
2021/12/05 03:56:41;;;;;;;5.28;4.78;;;;;;;3.22;82.06;99713.97;5020557;28;20112;-59
2021/12/05 03:59:09;;;;;;;10.10;4.93;;;;;;;3.24;81.95;99713.94;5012000;28;20061;-60
2021/12/05 04:01:35;;;;;;;12.20;4.93;;;;;;;3.24;82.13;99717.41;5020649;28;20045;-61
2021/12/05 04:04:01;;;;;;;10.73;4.25;;;;;;;3.23;81.93;99722.66;5004601;28;20046;-59
2021/12/05 04:06:27;;;;;;;6.97;4.00;;;;;;;3.19;82.20;99713.22;4986789;28;20314;-59
2021/12/05 04:08:55;;;;;;;9.65;5.00;;;;;;;3.21;82.29;99716.63;5023604;28;20030;-59
2021/12/05 04:11:28;;;;;;;10.13;4.30;;;;;;;3.23;82.12;99722.66;5025101;28;20026;-59
2021/12/05 04:13:54;;;;;;;9.50;4.57;;;;;;;3.18;82.17;99724.50;5013130;28;20711;-59
2021/12/05 04:16:20;;;;;;;6.82;4.57;;;;;;;3.22;82.23;99729.59;5024521;28;20144;-59
2021/12/05 04:18:47;;;;;;;9.10;4.75;;;;;;;3.25;81.94;99728.69;5032943;28;20538;-60
2021/12/05 04:21:15;;;;;;;9.13;4.03;;;;;;;3.28;81.56;99728.59;5045122;28;20382;-60
2021/12/05 04:23:41;;;;;;;5.35;3.83;;;;;;;3.28;81.23;99731.22;5006176;28;20664;-59
2021/12/05 04:26:07;;;;;;;4.43;4.03;;;;;;;3.27;81.55;99732.97;5044859;28;20021;-60
2021/12/05 04:28:33;;;;;;;8.02;4.13;;;;;;;3.22;81.87;99744.38;4997696;28;20109;-60
2021/12/05 04:30:59;;;;;;;5.68;4.10;;;;;;;3.22;81.61;99733.97;5023869;28;20021;-61
2021/12/05 04:33:25;;;;;;;10.07;4.30;;;;;;;3.18;81.64;99733.16;5007198;28;20128;-60
2021/12/05 04:35:51;;;;;;;7.95;4.07;;;;;;;3.10;81.80;99735.94;5005716;28;20668;-61
2021/12/05 04:38:16;;;;;;;8.65;4.60;;;;;;;3.09;81.39;99733.34;5023815;28;20001;-61
2021/12/05 04:40:42;;;;;;;9.73;4.05;;;;;;;3.10;81.36;99741.13;5025389;28;20125;-61
2021/12/05 04:43:08;;;;;;;6.13;3.63;;;;;;;3.02;81.71;99738.72;5007161;28;20029;-61
2021/12/05 04:45:35;;;;;;;8.43;4.22;;;;;;;3.02;81.82;99743.03;4990381;28;20021;-61
2021/12/05 04:48:03;;;;;;;6.93;3.97;;;;;;;3.03;81.75;99749.97;5006530;28;20034;-61
2021/12/05 04:50:29;;;;;;;7.38;3.97;;;;;;;2.98;82.24;99742.25;5023885;28;20116;-60
2021/12/05 04:52:55;;;;;;;7.75;4.35;;;;;;;2.95;82.20;99742.28;5023901;28;20435;-61
2021/12/05 04:55:21;;;;;;;9.13;4.28;;;;;;;3.00;81.87;99745.69;5024730;28;20026;-60
2021/12/05 04:57:48;;;;;;;6.72;4.07;;;;;;;2.99;82.08;99751.78;5005060;28;20053;-60
2021/12/05 05:00:25;;;;;;;7.93;4.00;;;;;;;3.03;82.07;99750.81;5015097;28;20018;-61
2021/12/05 05:02:51;;;;;;;7.80;4.53;;;;;;;2.94;82.55;99756.22;5010196;28;20037;-61
2021/12/05 05:05:17;;;;;;;11.15;4.75;;;;;;;2.95;82.75;99750.09;5008317;28;20060;-60
2021/12/05 05:07:43;;;;;;;6.18;4.25;;;;;;;2.83;83.27;99751.19;5020688;28;20033;-60
2021/12/05 05:10:24;;;;;;;10.13;4.85;;;;;;;2.86;83.42;99758.13;5035853;28;20039;-61
2021/12/05 05:12:50;;;;;;;7.72;5.03;;;;;;;2.81;83.49;99765.13;5043061;28;20024;-61
2021/12/05 05:15:20;;;;;;;7.95;4.95;;;;;;;2.85;83.76;99766.78;5031623;28;20030;-61
2021/12/05 05:17:47;;;;;;;7.95;4.55;;;;;;;2.80;83.93;99771.25;5024992;28;20046;-61
2021/12/05 05:20:24;;;;;;;5.60;4.88;;;;;;;2.81;84.10;99770.34;5024002;28;20029;-61
2021/12/05 05:51:57;;;;;;;6.05;4.30;;;;;;;2.55;84.63;99797.69;5025228;28;20108;-60
2021/12/05 05:54:23;;;;;;;5.47;4.22;;;;;;;2.56;85.10;99799.41;5023972;28;20010;-61
2021/12/05 05:56:54;;;;;;;7.43;4.88;;;;;;;2.55;84.80;99806.34;5022759;28;20052;-60
2021/12/05 05:59:27;;;;;;;8.00;4.30;;;;;;;2.51;85.00;99805.56;5025044;28;20022;-59
2021/12/05 06:04:18;;;;;;;7.32;5.00;;;;;;;2.43;85.31;99804.81;5016069;28;20061;-61
2021/12/05 06:06:44;;;;;;;6.28;4.47;;;;;;;2.46;85.39;99801.28;5005971;28;20496;-60
2021/12/05 06:09:09;;;;;;;8.63;4.90;;;;;;;2.49;85.15;99807.31;5023799;28;20112;-62
2021/12/05 06:11:35;;;;;;;7.13;4.10;;;;;;;2.47;85.14;99814.28;5016939;28;20420;-62
2021/12/05 06:14:02;;;;;;;9.65;4.93;;;;;;;2.43;85.36;99823.00;5020827;28;20029;-61
2021/12/05 06:16:27;;;;;;;6.50;4.45;;;;;;;2.42;85.79;99830.84;5026307;28;20231;-61
2021/12/05 06:18:52;;;;;;;13.70;5.38;;;;;;;2.43;86.05;99828.22;5022885;28;20036;-62
2021/12/05 06:21:18;;;;;;;11.88;5.22;;;;;;;2.47;85.94;99837.69;5021916;28;20071;-61
2021/12/05 06:23:44;;;;;;;10.05;4.60;;;;;;;2.53;85.90;99847.16;5023257;28;20025;-61
2021/12/05 06:26:14;;;;;;;9.00;4.45;;;;;;;2.57;85.49;99848.81;5024750;28;20021;-61
2021/12/05 06:28:42;;;;;;;7.80;4.03;;;;;;;2.63;85.68;99853.91;5005894;28;20033;-60
2021/12/05 06:39:21;;;;;;;7.18;5.18;;;;;;;2.80;84.79;99867.50;5002545;28;20125;-62
2021/12/05 06:47:12;;;;;;;7.47;4.22;;;;;;;2.78;84.79;99863.19;5006524;28;20040;-62
2021/12/05 06:49:38;;;;;;;8.35;5.22;;;;;;;2.73;84.75;99867.59;4998688;28;20026;-62
2021/12/05 06:52:05;;;;;;;7.10;4.15;;;;;;;2.73;84.73;99862.41;5010013;28;20034;-61
2021/12/05 06:54:30;;;;;;;6.75;4.75;;;;;;;2.68;84.74;99863.38;5005273;28;20060;-60
2021/12/05 06:56:55;;;;;;;10.52;5.03;;;;;;;2.61;84.87;99862.59;5021219;28;20120;-62
2021/12/05 06:59:21;;;;;;;9.63;4.75;;;;;;;2.60;84.77;99861.75;5011473;28;20032;-63
2021/12/05 07:01:46;;;;;;;7.55;4.75;;;;;;;2.56;85.15;99865.28;5021121;28;20056;-62
2021/12/05 07:04:44;;;;;;;8.48;4.47;;;;;;;2.53;85.43;99871.38;5004444;28;20997;-61
2021/12/05 07:06:57;;;;;;;8.07;4.82;;;;;;;2.49;85.33;99869.72;5004481;28;20343;-62
2021/12/05 07:09:23;;;;;;;10.07;4.97;;;;;;;2.53;85.44;99875.75;5005088;28;20397;-62
2021/12/05 07:12:21;;;;;;;8.35;5.38;;;;;;;2.56;85.43;99883.47;5018162;28;20124;-67
2021/12/05 07:14:54;;;;;;;9.48;4.82;;;;;;;2.61;85.24;99896.41;5009138;28;20061;-67
2021/12/05 07:25:38;;;;;;;11.98;5.85;;;;;;;2.71;84.84;99910.97;5016582;28;20116;-66
2021/12/05 07:41:48;;;;;;;6.82;4.35;;;;;;;2.82;83.94;99931.63;5026247;28;20091;-66
2021/12/05 07:44:14;;;;;;;5.38;3.70;;;;;;;2.87;84.00;99926.34;5004270;28;20040;-66
2021/12/05 07:46:40;;;;;;;9.82;5.18;;;;;;;2.87;83.80;99931.56;5025433;28;20033;-65
2021/12/05 07:49:09;;;;;;;6.68;4.05;;;;;;;2.86;83.71;99935.06;5007807;28;20025;-66
2021/12/05 07:51:39;;;;;;;8.23;4.30;;;;;;;2.85;83.96;99942.00;5026667;28;20033;-61
2021/12/05 07:54:17;;;;;;;;;;;;;;;2.82;84.03;99943.78;5009368;28;20036;-61
2021/12/05 07:56:49;;;;;;;8.77;4.60;;;;;;;2.84;84.29;99948.09;5011547;28;19922;-63
2021/12/05 08:15:27;;;;;;;13.07;7.38;;;;;;;3.07;83.98;99961.59;5025565;28;20045;-64
2021/12/05 08:17:54;;;;;;;12.55;7.38;;;;;;;3.06;84.05;99957.25;5023827;28;20030;-66
2021/12/05 08:20:30;;;;;;;10.75;6.68;;;;;;;3.03;84.33;99973.78;5018030;28;20068;-65
2021/12/05 08:22:57;;;;;;;13.75;7.90;;;;;;;3.01;84.53;99976.41;5002724;28;20083;-65
2021/12/05 08:25:27;;;;;;;14.05;7.63;;;;;;;3.06;84.56;99978.09;5004685;28;20097;-68
2021/12/05 08:27:58;;;;;;;13.75;6.60;;;;;;;3.11;84.40;99982.34;5026113;28;20009;-67
2021/12/05 08:30:33;;;;;;;10.88;6.65;;;;;;;3.21;84.22;99993.47;5025573;28;20108;-68
2021/12/05 08:36:12;;;;;;;8.75;6.18;;;;;;;3.27;83.61;99995.97;5009732;28;20466;-67
2021/12/05 09:24:12;;;;;;;6.35;5.00;;;;;;;3.72;82.10;100056.84;5023116;28;20032;-70
2021/12/05 09:29:39;;;;;;;11.68;6.22;;;;;;;3.68;82.53;100065.59;5009742;28;20060;-70
2021/12/05 10:10:33;;;;;;;10.00;6.75;;;;;;;4.21;80.31;100121.97;5014718;28;20040;-61
2021/12/05 10:16:08;;;;;;;8.10;4.72;;;;;;;4.17;80.17;100121.19;4977620;28;20085;-61
2021/12/05 10:19:04;;;;;;;9.10;5.45;;;;;;;4.11;80.31;100123.03;5008364;28;20254;-61
2021/12/05 10:27:20;;;;;;;7.93;4.43;;;;;;;4.33;79.64;100141.75;4999137;28;20040;-69
2021/12/05 10:38:14;;;;;;;5.70;3.70;;;;;;;4.71;77.97;100141.00;5020542;28;20033;-70
2021/12/05 10:40:59;;;;;;;4.10;2.70;;;;;;;4.73;77.45;100147.06;5007136;28;20546;-71
2021/12/05 10:43:29;;;;;;;6.18;3.08;;;;;;;4.90;76.92;100150.19;4999209;28;20033;-68
2021/12/05 10:46:11;;;;;;;4.72;3.38;;;;;;;5.03;76.91;100161.19;5017015;28;20037;-70
2021/12/05 10:48:39;;;;;;;3.47;2.63;;;;;;;5.33;76.00;100163.19;4992612;28;20133;-73
2021/12/05 10:51:21;;;;;;;3.38;3.05;;;;;;;5.52;74.57;100173.19;5018829;28;20057;-75
2021/12/05 10:53:51;;;;;;;3.67;3.10;;;;;;;5.47;74.85;100167.19;5013366;28;20042;-66
2021/12/05 10:56:28;;;;;;;4.07;2.70;;;;;;;5.43;75.24;100167.31;5012172;28;20441;-68
2021/12/05 10:59:24;;;;;;;5.25;3.00;;;;;;;5.47;75.04;100169.81;5014013;28;20390;-73
2021/12/05 11:01:57;;;;;;;6.10;2.60;;;;;;;5.39;75.06;100167.41;4997854;28;20124;-70
2021/12/05 11:04:34;;;;;;;4.03;2.92;;;;;;;5.27;75.42;100172.00;5021476;28;20068;-74
2021/12/05 11:07:11;;;;;;;3.28;2.97;;;;;;;5.26;76.18;100167.69;5023844;28;20111;-69
2021/12/05 11:09:45;;;;;;;10.23;3.20;;;;;;;5.40;75.92;100176.94;5004721;28;20014;-64
2021/12/05 11:12:18;;;;;;;4.13;2.65;;;;;;;5.70;74.80;100174.50;5018845;28;20741;-72
2021/12/05 11:14:56;;;;;;;3.63;3.08;;;;;;;5.65;75.16;100177.22;5017639;28;20494;-70
2021/12/05 11:17:23;;;;;;;3.90;3.00;;;;;;;5.69;74.35;100183.25;5004881;28;20052;-72
2021/12/05 11:20:09;;;;;;;2.65;2.45;;;;;;;5.76;74.91;100182.22;5013459;28;20033;-72
2021/12/05 11:22:38;;;;;;;3.67;2.50;;;;;;;5.98;73.61;100179.03;5022339;28;20106;-70
2021/12/05 11:25:05;;;;;;;3.07;2.70;;;;;;;5.85;74.44;100182.88;5011770;28;20461;-67
2021/12/05 11:27:34;;;;;;;4.22;2.42;;;;;;;5.82;74.58;100178.59;5022454;28;20043;-67
2021/12/05 11:30:02;;;;;;;3.90;2.30;;;;;;;6.02;73.82;100174.63;5005379;28;20026;-65
2021/12/05 11:32:37;;;;;;;3.33;2.80;;;;;;;6.09;73.87;100188.41;5001007;28;20029;-64
2021/12/05 11:35:27;;;;;;;3.00;2.60;;;;;;;6.06;73.16;100187.56;5012311;28;20033;-67
2021/12/05 11:37:58;;;;;;;2.40;2.20;;;;;;;6.03;73.01;100194.63;5004157;28;20025;-65
2021/12/05 11:40:28;;;;;;;2.63;2.42;;;;;;;6.10;74.00;100195.34;4999573;28;20033;-65
2021/12/05 11:43:02;;;;;;;4.20;3.05;;;;;;;6.21;73.05;100195.94;5013635;28;20116;-64
2021/12/05 11:45:29;;;;;;;2.58;2.38;;;;;;;6.47;73.10;100197.00;4998673;28;20109;-64
2021/12/05 11:47:55;;;;;;;2.97;2.60;;;;;;;6.58;72.04;100204.56;5018863;28;20010;-66
2021/12/05 11:50:33;;;;;;;2.10;1.92;;;;;;;7.76;68.58;100204.59;5019981;28;20036;-66
2021/12/05 11:52:58;;;;;;;2.90;2.30;;;;;;;8.29;66.73;100202.84;5014088;28;20486;-66
2021/12/05 11:55:27;;;;;;;2.03;1.88;;;;;;;8.97;64.39;100199.56;5003268;28;20164;-66
2021/12/05 11:57:52;;;;;;;2.30;2.00;;;;;;;9.35;61.80;100214.81;5017602;28;20029;-66
2021/12/05 12:00:19;;;;;;;2.30;1.63;;;;;;;8.98;63.15;100217.06;5014184;28;20018;-67
2021/12/05 12:02:46;;;;;;;2.45;2.10;;;;;;;8.67;63.28;100218.22;5002307;28;20047;-66
2021/12/05 12:05:14;;;;;;;2.50;2.30;;;;;;;7.70;66.74;100219.63;5018082;28;20577;-66
2021/12/05 12:08:07;;;;;;;2.85;2.20;;;;;;;7.61;67.28;100224.31;5016288;28;20075;-66
2021/12/05 12:10:46;;;;;;;3.60;2.60;;;;;;;7.33;69.28;100229.50;5021261;28;20041;-66
2021/12/05 12:13:19;;;;;;;4.18;2.40;;;;;;;7.03;69.46;100224.25;4999915;28;20026;-65
2021/12/05 12:15:47;;;;;;;3.40;3.10;;;;;;;6.87;71.03;100226.47;5021587;28;20049;-65
2021/12/05 12:18:26;;;;;;;4.45;2.83;;;;;;;6.83;70.73;100224.81;5004599;28;20028;-64
2021/12/05 12:20:52;;;;;;;6.25;3.17;;;;;;;6.65;72.01;100229.66;5023973;28;20039;-64
2021/12/05 12:23:20;;;;;;;4.07;3.35;;;;;;;6.65;71.43;100231.44;5021910;28;20368;-61
2021/12/05 12:25:48;;;;;;;5.35;4.05;;;;;;;6.40;72.35;100246.03;4994583;28;20033;-63
2021/12/05 12:28:14;;;;;;;13.10;4.82;;;;;;;6.30;72.90;100252.41;5009852;28;20022;-67
2021/12/05 12:30:42;;;;;;;8.95;6.07;;;;;;;6.11;73.22;100252.84;5010535;28;20032;-65
2021/12/05 12:33:15;;;;;;;11.93;7.00;;;;;;;6.06;73.60;100257.38;4987689;28;20430;-66
2021/12/05 12:35:43;;;;;;;11.80;7.13;;;;;;;5.99;74.09;100267.06;5003952;28;20451;-63
2021/12/05 12:38:14;;;;;;;16.30;8.30;;;;;;;5.75;74.85;100271.13;5024038;28;20033;-61
2021/12/05 12:40:50;;;;;;;19.10;9.07;;;;;;;5.77;74.17;100269.31;4999210;28;20033;-68
2021/12/05 12:43:33;;;;;;;21.67;10.27;;;;;;;5.54;75.45;100274.19;5021149;28;20087;-62
2021/12/05 12:46:22;;;;;;;19.23;9.75;;;;;;;5.48;75.72;100279.53;5016280;28;20026;-64
2021/12/05 12:48:50;;;;;;;23.27;9.85;;;;;;;5.44;75.44;100281.38;5014210;28;20026;-67
2021/12/05 12:51:31;;;;;;;24.30;12.40;;;;;;;5.35;75.61;100283.31;5006722;28;20124;-73
2021/12/05 12:54:01;;;;;;;22.35;10.15;;;;;;;5.36;75.50;100279.81;5016236;28;20025;-65
2021/12/05 12:56:26;;;;;;;27.65;12.98;;;;;;;5.21;75.50;100289.69;5012466;28;20077;-67
2021/12/05 12:59:01;;;;;;;29.52;13.57;;;;;;;5.21;75.70;100289.69;5023133;28;20506;-65
2021/12/05 13:02:26;;;;;;;30.73;11.63;;;;;;;5.27;75.87;100294.78;5013993;28;20287;-67
2021/12/05 13:10:02;;;;;;;31.48;14.23;;;;;;;5.46;75.74;100301.38;5021404;28;20048;-68
2021/12/05 13:12:40;;;;;;;28.63;14.15;;;;;;;5.49;75.22;100307.41;5013674;28;20029;-65
2021/12/05 13:15:08;;;;;;;29.50;14.63;;;;;;;5.52;75.10;100311.69;5015967;28;20029;-67
2021/12/05 13:17:48;;;;;;;30.80;15.35;;;;;;;5.43;75.52;100310.16;5013482;28;20075;-67
2021/12/05 13:20:19;;;;;;;33.67;15.30;;;;;;;5.37;75.50;100310.28;5018326;28;20026;-67
2021/12/05 13:23:11;;;;;;;31.02;15.52;;;;;;;5.31;76.30;100317.34;5006840;28;20044;-63
2021/12/05 13:25:58;;;;;;;35.83;17.33;;;;;;;5.36;76.51;100316.41;5023467;28;20022;-70
2021/12/05 13:28:46;;;;;;;34.30;17.63;;;;;;;5.26;76.51;100323.53;5025377;28;20511;-68
2021/12/05 13:31:26;;;;;;;34.40;15.45;;;;;;;5.30;76.61;100326.06;5024133;28;20025;-66
2021/12/05 13:34:27;;;;;;;27.20;15.88;;;;;;;5.25;76.76;100334.88;5024638;28;20482;-64
2021/12/05 13:37:09;;;;;;;26.10;14.02;;;;;;;5.28;76.88;100334.84;5023725;28;20022;-66
2021/12/05 13:39:47;;;;;;;29.65;15.45;;;;;;;5.30;76.93;100333.91;5027893;28;20063;-64
2021/12/05 13:42:14;;;;;;;25.10;14.50;;;;;;;5.18;77.54;100337.63;5017454;28;20120;-72
2021/12/05 13:45:08;;;;;;;35.17;16.27;;;;;;;5.20;77.83;100326.31;5023753;28;20371;-64
2021/12/05 13:48:07;;;;;;;30.75;17.63;;;;;;;5.20;77.27;100337.59;5004954;28;20569;-69
2021/12/05 13:50:42;;;;;;;31.45;16.95;;;;;;;5.24;76.78;100339.25;5024727;28;20083;-70
2021/12/05 13:53:07;;;;;;;31.33;16.45;;;;;;;5.22;76.75;100348.00;5024152;28;20450;-70
2021/12/05 13:55:39;;;;;;;35.70;16.58;;;;;;;5.26;76.22;100350.53;5024108;28;20037;-70
2021/12/05 13:58:34;;;;;;;34.92;17.80;;;;;;;5.33;76.79;100350.41;5013571;28;20427;-69
2021/12/05 14:01:15;;;;;;;30.27;15.98;;;;;;;5.23;76.24;100354.94;5019516;28;20399;-70
2021/12/05 14:03:55;;;;;;;30.92;15.15;;;;;;;5.29;76.18;100365.28;5009311;28;20502;-70
2021/12/05 14:06:43;;;;;;;27.92;15.70;;;;;;;5.17;76.49;100375.09;5024409;28;20037;-71
2021/12/05 14:09:24;;;;;;;30.77;16.30;;;;;;;5.13;76.30;100383.00;5016901;28;20065;-71
2021/12/05 14:12:08;;;;;;;26.77;15.65;;;;;;;5.14;76.58;100389.94;5024150;28;20083;-70
2021/12/05 14:14:40;;;;;;;28.88;15.75;;;;;;;5.15;76.85;100386.47;5003107;28;20382;-71
2021/12/05 14:17:09;;;;;;;28.70;17.00;;;;;;;5.05;77.02;100394.47;4996932;28;20030;-71
2021/12/05 14:19:36;;;;;;;35.45;17.58;;;;;;;5.01;77.32;100398.03;5023271;28;20026;-69
2021/12/05 14:22:04;;;;;;;31.75;15.95;;;;;;;5.02;77.36;100406.69;5024234;28;20025;-72
2021/12/05 14:24:33;;;;;;;27.55;13.73;;;;;;;5.00;77.68;100419.78;5023963;28;20021;-72
2021/12/05 14:27:02;;;;;;;33.92;16.48;;;;;;;4.92;78.19;100422.56;5014283;28;20072;-72
2021/12/05 14:29:29;;;;;;;31.67;16.52;;;;;;;4.90;77.84;100426.06;5023974;28;20475;-73
2021/12/05 14:32:02;;;;;;;31.75;16.67;;;;;;;4.83;77.70;100432.25;5016844;28;20104;-64
2021/12/05 14:34:28;;;;;;;34.42;17.08;;;;;;;4.75;78.45;100440.22;5013653;28;20021;-71
2021/12/05 14:36:59;;;;;;;27.83;13.15;;;;;;;4.78;78.15;100438.44;5016969;28;20067;-70
2021/12/05 14:39:35;;;;;;;37.38;16.20;;;;;;;4.73;78.28;100458.50;5005175;28;20063;-71
2021/12/05 14:42:04;;;;;;;29.83;13.55;;;;;;;4.75;78.03;100467.19;5022047;28;20013;-71
2021/12/05 14:44:29;;;;;;;;;;;;;;;4.69;78.07;100464.66;5022363;28;20464;-71
2021/12/05 14:47:01;;;;;;;31.95;15.40;;;;;;;4.57;78.37;100473.56;5018609;28;19913;-72
2021/12/05 14:49:30;;;;;;;28.52;14.90;;;;;;;4.53;78.66;100479.69;5018715;28;20034;-70
2021/12/05 14:51:55;;;;;;;27.55;14.93;;;;;;;4.51;78.79;100473.63;5022899;28;20463;-70
2021/12/05 14:54:26;;;;;;;27.83;14.35;;;;;;;4.54;78.62;100484.03;5016784;28;20053;-69
2021/12/05 14:56:52;;;;;;;29.98;16.05;;;;;;;4.50;78.83;100491.06;5023319;28;20025;-72
2021/12/05 14:59:18;;;;;;;27.38;13.20;;;;;;;4.52;78.69;100486.66;5023449;28;20388;-72
2021/12/05 15:01:46;;;;;;;28.25;14.93;;;;;;;4.51;78.87;100498.00;4999254;28;20020;-70
2021/12/05 15:04:18;;;;;;;31.52;17.67;;;;;;;4.46;78.84;100518.09;5022928;28;20052;-72
2021/12/05 15:06:44;;;;;;;22.70;14.48;;;;;;;4.48;79.11;100525.88;5024358;28;20040;-72
2021/12/05 15:09:38;;;;;;;25.67;16.30;;;;;;;4.42;79.13;100532.03;5023311;28;20092;-72
2021/12/05 15:12:16;;;;;;;25.75;15.40;;;;;;;4.38;79.19;100539.06;5019172;28;20099;-71
2021/12/05 15:14:44;;;;;;;22.92;14.32;;;;;;;4.40;79.14;100549.47;5005487;28;20184;-72
2021/12/05 15:17:30;;;;;;;24.73;15.10;;;;;;;4.41;79.44;100545.97;4999929;28;20491;-73
2021/12/05 15:20:04;;;;;;;25.08;17.10;;;;;;;4.42;78.76;100552.91;5014460;28;20018;-72
2021/12/05 15:22:30;;;;;;;27.02;17.45;;;;;;;4.37;79.40;100554.72;5022717;28;20044;-71
2021/12/05 15:24:58;;;;;;;30.02;18.33;;;;;;;4.33;79.48;100563.47;5021523;28;20477;-71
2021/12/05 15:27:26;;;;;;;30.67;18.13;;;;;;;4.29;79.73;100558.28;5020631;28;20115;-72
2021/12/05 15:29:54;;;;;;;26.55;15.13;;;;;;;4.33;79.44;100573.91;5021837;28;20083;-71
2021/12/05 15:32:26;;;;;;;31.93;18.20;;;;;;;4.32;79.92;100585.22;5023182;28;20022;-74
2021/12/05 15:34:56;;;;;;;28.52;18.58;;;;;;;4.27;80.04;100580.91;5021533;28;20025;-74
2021/12/05 15:37:23;;;;;;;34.33;19.50;;;;;;;4.25;80.21;100587.03;5016872;28;20473;-74
2021/12/05 15:39:50;;;;;;;31.02;20.10;;;;;;;4.20;80.50;100586.22;4999577;28;20489;-73
2021/12/05 15:42:28;;;;;;;29.23;16.85;;;;;;;4.15;80.80;100591.47;5022660;28;20085;-74
2021/12/05 15:44:56;;;;;;;22.63;14.10;;;;;;;4.14;80.75;100600.19;5021841;28;20053;-75
2021/12/05 15:47:26;;;;;;;39.17;19.65;;;;;;;4.15;81.29;100612.34;5020752;28;20028;-74
2021/12/05 15:50:25;;;;;;;31.25;18.33;;;;;;;4.08;81.67;100611.56;5020629;28;20048;-73
2021/12/05 15:52:54;;;;;;;25.02;15.55;;;;;;;4.11;81.70;100608.03;4992185;28;20143;-76
2021/12/05 15:55:46;;;;;;;38.60;22.48;;;;;;;4.02;82.46;100607.28;5012437;28;20091;-76
2021/12/05 15:58:25;;;;;;;36.67;20.15;;;;;;;3.98;82.97;100609.91;5006846;28;20384;-75
2021/12/05 16:00:51;;;;;;;32.40;19.50;;;;;;;3.97;83.10;100616.03;5024267;28;20056;-71
2021/12/05 16:03:25;;;;;;;34.10;20.17;;;;;;;3.96;83.35;100625.59;5025897;28;20118;-72
2021/12/05 16:06:00;;;;;;;33.47;18.63;;;;;;;3.95;83.46;100629.06;5027349;28;20052;-72
2021/12/05 16:08:31;;;;;;;27.08;17.38;;;;;;;3.97;83.41;100636.88;5009506;28;20326;-73
2021/12/05 16:10:59;;;;;;;28.25;18.23;;;;;;;3.92;83.43;100639.53;5026761;28;20116;-73
2021/12/05 16:13:30;;;;;;;28.25;16.50;;;;;;;3.88;83.15;100643.03;5026136;28;20029;-74
2021/12/05 16:16:07;;;;;;;25.40;14.95;;;;;;;3.86;82.97;100652.63;5025015;28;20034;-75
2021/12/05 16:18:35;;;;;;;22.20;13.70;;;;;;;3.89;82.87;100657.81;5022211;28;20017;-73
2021/12/05 16:21:05;;;;;;;22.80;14.55;;;;;;;3.85;82.94;100666.53;5022253;28;20384;-72
2021/12/05 16:23:34;;;;;;;22.85;14.80;;;;;;;3.83;83.06;100668.28;5026305;28;20033;-73
2021/12/05 16:26:11;;;;;;;21.95;13.70;;;;;;;3.83;82.59;100666.56;5026807;28;20087;-74
2021/12/05 16:28:48;;;;;;;18.83;13.43;;;;;;;3.80;82.49;100669.19;5027247;28;20138;-73
2021/12/05 16:31:17;;;;;;;16.30;11.73;;;;;;;3.77;82.32;100677.03;5008981;28;20014;-72
2021/12/05 16:33:46;;;;;;;17.73;12.48;;;;;;;3.78;81.83;100681.34;5026609;28;20104;-72
2021/12/05 16:36:12;;;;;;;16.52;10.77;;;;;;;3.78;81.83;100687.44;5027379;28;20333;-71
2021/12/05 16:38:40;;;;;;;13.15;8.95;;;;;;;3.77;82.01;100693.50;5008373;28;20025;-73
2021/12/05 16:41:05;;;;;;;16.52;11.68;;;;;;;3.75;82.04;100697.00;5026334;28;20100;-70
2021/12/05 16:43:32;;;;;;;15.18;9.95;;;;;;;3.76;81.87;100710.03;5025648;28;20071;-70
2021/12/05 16:46:29;;;;;;;18.35;10.98;;;;;;;3.73;81.77;100704.84;5022515;28;20017;-71
2021/12/05 16:48:57;;;;;;;17.77;11.02;;;;;;;3.78;81.80;100717.84;5015231;28;20065;-71
2021/12/05 16:51:30;;;;;;;19.98;10.88;;;;;;;3.83;81.71;100718.69;5002131;28;20427;-69
2021/12/05 16:54:03;;;;;;;22.45;10.88;;;;;;;3.79;81.92;100730.88;5025678;28;20507;-69
2021/12/05 16:56:34;;;;;;;19.27;10.18;;;;;;;3.81;81.76;100736.06;5026350;28;20091;-70
2021/12/05 16:59:05;;;;;;;16.88;10.38;;;;;;;3.74;81.94;100735.25;5019865;28;20223;-69
2021/12/05 17:01:31;;;;;;;16.20;10.65;;;;;;;3.71;82.25;100737.00;5025744;28;20060;-69
2021/12/05 17:03:57;;;;;;;16.27;9.80;;;;;;;3.76;81.97;100743.03;5022142;28;20045;-71
2021/12/05 17:06:22;;;;;;;21.42;13.43;;;;;;;3.69;82.61;100750.03;5004725;28;20037;-71
2021/12/05 17:08:47;;;;;;;19.83;13.38;;;;;;;3.62;83.15;100766.59;5025491;28;20149;-72